Time;durP1;ratioP1;P1;durP2;ratioP2;P2;SDS_P1;SDS_P2;PMS_P1;PMS_P2;Temp;Humidity;BMP_temperature;BMP_pressure;BME280_temperature;BME280_humidity;BME280_pressure;Samples;Min_cycle;Max_cycle;Signal;HPM_P1;HPM_P2
2023/05/03 00:00:54;;;;;;;8.98;2.65;;;;;;;;;;5045807;28;20122;-61
2023/05/03 00:03:22;;;;;;;10.13;2.80;;;;;;;;;;5045694;28;20051;-63
2023/05/03 00:05:49;;;;;;;11.18;2.47;;;;;;;;;;5045528;28;20061;-61
2023/05/03 00:08:16;;;;;;;8.57;2.97;;;;;;;;;;5045488;28;20381;-61
2023/05/03 00:10:43;;;;;;;10.15;2.65;;;;;;;;;;5046339;28;20567;-60
2023/05/03 00:13:10;;;;;;;10.38;2.40;;;;;;;;;;5045506;28;20472;-61
2023/05/03 00:15:36;;;;;;;13.73;2.97;;;;;;;;;;5044621;28;20040;-63
2023/05/03 00:18:03;;;;;;;10.13;2.67;;;;;;;;;;5044812;28;20128;-61
2023/05/03 00:20:30;;;;;;;8.88;2.40;;;;;;;;;;5043245;28;20045;-59
2023/05/03 00:22:57;;;;;;;7.32;2.70;;;;;;;;;;5045493;28;20363;-61
2023/05/03 00:25:24;;;;;;;12.35;2.60;;;;;;;;;;5044900;28;20576;-62
2023/05/03 00:27:50;;;;;;;9.65;3.08;;;;;;;;;;5044242;28;20044;-60
2023/05/03 00:30:18;;;;;;;12.70;2.78;;;;;;;;;;5043881;28;20087;-62
2023/05/03 00:32:44;;;;;;;11.27;3.00;;;;;;;;;;5058940;28;20492;-63
2023/05/03 00:35:11;;;;;;;7.68;2.28;;;;;;;;;;5046507;27;20700;-64
2023/05/03 00:37:38;;;;;;;11.90;2.80;;;;;;;;;;5043436;28;20561;-62
2023/05/03 00:40:06;;;;;;;8.18;2.67;;;;;;;;;;5044107;27;20151;-61
2023/05/03 00:42:34;;;;;;;7.90;2.42;;;;;;;;;;5044622;28;20064;-62
2023/05/03 00:45:03;;;;;;;9.15;2.95;;;;;;;;;;5045113;28;20183;-60
2023/05/03 00:47:30;;;;;;;9.52;2.60;;;;;;;;;;5043673;28;20417;-62
2023/05/03 00:49:57;;;;;;;5.95;2.33;;;;;;;;;;5045625;28;20444;-64
2023/05/03 00:52:24;;;;;;;8.07;2.72;;;;;;;;;;5044219;28;20473;-63
2023/05/03 00:54:51;;;;;;;7.18;2.67;;;;;;;;;;5044606;27;20041;-62
2023/05/03 00:57:18;;;;;;;6.07;2.30;;;;;;;;;;5042499;28;20045;-61
2023/05/03 00:59:46;;;;;;;8.57;3.10;;;;;;;;;;5043666;28;20037;-60
2023/05/03 01:02:13;;;;;;;8.80;2.80;;;;;;;;;;5043900;28;20039;-61
2023/05/03 01:04:40;;;;;;;15.98;3.75;;;;;;;;;;5043316;28;20037;-61
2023/05/03 01:07:26;;;;;;;6.15;2.85;;;;;;;;;;5042986;28;20036;-59
2023/05/03 01:09:55;;;;;;;8.18;3.10;;;;;;;;;;5042441;28;20036;-60
2023/05/03 01:12:44;;;;;;;9.98;3.33;;;;;;;;;;5041029;28;20048;-62
2023/05/03 01:15:10;;;;;;;8.15;2.90;;;;;;;;;;5044107;28;20378;-61
2023/05/03 01:17:47;;;;;;;13.23;3.33;;;;;;;;;;5043951;28;20158;-61
2023/05/03 01:20:15;;;;;;;9.63;3.10;;;;;;;;;;5045381;27;20036;-62
2023/05/03 01:22:42;;;;;;;14.55;3.28;;;;;;;;;;5060453;28;20045;-63
2023/05/03 01:25:10;;;;;;;6.57;3.13;;;;;;;;;;5044385;28;21023;-61
2023/05/03 01:27:38;;;;;;;7.88;3.08;;;;;;;;;;5044147;28;20505;-60
2023/05/03 01:30:06;;;;;;;8.50;3.00;;;;;;;;;;5045283;27;20041;-63
2023/05/03 01:32:41;;;;;;;11.02;3.10;;;;;;;;;;5044418;28;20135;-63
2023/05/03 01:35:12;;;;;;;6.50;2.55;;;;;;;;;;5043484;27;20071;-62
2023/05/03 01:37:40;;;;;;;11.35;3.45;;;;;;;;;;5044187;28;20215;-60
2023/05/03 01:40:08;;;;;;;10.25;3.10;;;;;;;;;;5044992;28;20044;-62
2023/05/03 01:42:36;;;;;;;10.50;3.08;;;;;;;;;;5043774;28;20036;-64
2023/05/03 01:45:04;;;;;;;10.02;3.05;;;;;;;;;;5043665;28;20047;-62
2023/05/03 01:47:31;;;;;;;11.13;4.00;;;;;;;;;;5040533;28;20047;-63
2023/05/03 01:49:58;;;;;;;15.60;3.65;;;;;;;;;;5042539;28;20040;-61
2023/05/03 01:52:24;;;;;;;10.95;3.20;;;;;;;;;;5043151;28;20061;-61
2023/05/03 01:54:51;;;;;;;16.85;3.72;;;;;;;;;;5041795;28;20049;-63
2023/05/03 01:57:18;;;;;;;11.98;3.55;;;;;;;;;;5043364;28;20120;-61
2023/05/03 01:59:45;;;;;;;15.73;3.65;;;;;;;;;;5040504;28;20055;-63
2023/05/03 02:02:12;;;;;;;7.57;3.45;;;;;;;;;;5043208;28;20041;-62
2023/05/03 02:04:38;;;;;;;9.35;3.50;;;;;;;;;;5042048;28;20510;-62
2023/05/03 02:07:05;;;;;;;12.15;3.60;;;;;;;;;;5041352;28;20356;-63
2023/05/03 02:09:32;;;;;;;13.63;3.45;;;;;;;;;;5042701;28;20043;-61
2023/05/03 02:11:59;;;;;;;12.05;3.58;;;;;;;;;;5042278;28;20563;-60
2023/05/03 02:14:26;;;;;;;9.68;3.20;;;;;;;;;;5043594;28;20320;-61
2023/05/03 02:16:56;;;;;;;16.30;4.30;;;;;;;;;;5041735;28;20041;-60
2023/05/03 02:19:22;;;;;;;11.85;4.00;;;;;;;;;;5042783;28;20554;-61
2023/05/03 02:21:49;;;;;;;14.13;3.85;;;;;;;;;;5028778;28;20045;-62
2023/05/03 02:24:16;;;;;;;13.65;3.45;;;;;;;;;;5045008;28;20049;-63
2023/05/03 02:26:43;;;;;;;11.63;3.33;;;;;;;;;;5043509;28;20049;-61
2023/05/03 02:29:09;;;;;;;15.70;3.00;;;;;;;;;;5045027;28;22180;-61
2023/05/03 02:31:36;;;;;;;11.80;3.15;;;;;;;;;;5043106;28;20140;-63
2023/05/03 02:34:03;;;;;;;10.52;3.20;;;;;;;;;;5045366;28;20044;-60
2023/05/03 02:36:30;;;;;;;11.70;3.13;;;;;;;;;;5042452;28;20441;-62
2023/05/03 02:38:56;;;;;;;12.77;2.83;;;;;;;;;;5043906;28;20033;-59
2023/05/03 02:41:23;;;;;;;15.02;4.30;;;;;;;;;;5044745;28;20067;-63
2023/05/03 02:43:50;;;;;;;20.55;5.85;;;;;;;;;;5045049;28;20041;-62
2023/05/03 02:46:17;;;;;;;11.02;3.25;;;;;;;;;;5042656;28;20388;-64
2023/05/03 02:48:44;;;;;;;19.48;3.53;;;;;;;;;;5044384;28;20067;-62
2023/05/03 02:51:11;;;;;;;20.58;3.35;;;;;;;;;;5043543;28;20072;-60
2023/05/03 02:53:37;;;;;;;14.52;3.60;;;;;;;;;;5043447;28;20048;-62
2023/05/03 02:56:04;;;;;;;14.93;3.53;;;;;;;;;;5043656;28;20532;-62
2023/05/03 02:58:31;;;;;;;13.90;3.58;;;;;;;;;;5041493;28;20401;-60
2023/05/03 03:00:58;;;;;;;18.60;3.40;;;;;;;;;;5043567;28;20044;-62
2023/05/03 03:03:25;;;;;;;8.90;2.58;;;;;;;;;;5046118;28;20037;-61
2023/05/03 03:05:51;;;;;;;8.15;2.58;;;;;;;;;;5045888;28;20060;-60
2023/05/03 03:08:18;;;;;;;12.85;2.80;;;;;;;;;;5047570;28;20097;-62
2023/05/03 03:10:45;;;;;;;9.95;2.80;;;;;;;;;;5047231;27;22463;-63
2023/05/03 03:13:11;;;;;;;10.07;2.70;;;;;;;;;;5047739;28;20040;-59
2023/05/03 03:15:38;;;;;;;14.88;3.92;;;;;;;;;;5047010;27;20052;-60
2023/05/03 03:18:05;;;;;;;18.38;3.05;;;;;;;;;;5049059;28;20559;-62
2023/05/03 03:20:32;;;;;;;18.73;3.05;;;;;;;;;;5047659;27;20049;-60
2023/05/03 03:22:58;;;;;;;12.23;3.15;;;;;;;;;;5046846;28;20511;-59
2023/05/03 03:25:25;;;;;;;10.80;2.85;;;;;;;;;;5046874;28;20144;-60
2023/05/03 03:27:52;;;;;;;12.10;2.78;;;;;;;;;;5044519;28;20072;-63
2023/05/03 03:30:18;;;;;;;13.13;3.33;;;;;;;;;;5045073;27;20160;-61
2023/05/03 03:32:45;;;;;;;14.38;2.60;;;;;;;;;;5047165;28;20098;-59
2023/05/03 03:35:13;;;;;;;12.43;2.42;;;;;;;;;;5047954;28;20051;-64
2023/05/03 03:37:39;;;;;;;15.77;3.47;;;;;;;;;;5043625;28;20504;-63
2023/05/03 03:40:06;;;;;;;13.70;2.97;;;;;;;;;;5043708;27;20071;-64
2023/05/03 03:42:33;;;;;;;16.92;3.40;;;;;;;;;;5042115;28;20028;-64
2023/05/03 03:45:00;;;;;;;12.45;3.08;;;;;;;;;;5043133;28;20815;-58
2023/05/03 03:47:27;;;;;;;13.18;2.70;;;;;;;;;;5043846;28;20033;-61
2023/05/03 03:49:53;;;;;;;12.00;3.03;;;;;;;;;;5045981;27;20075;-60
2023/05/03 03:52:20;;;;;;;10.38;3.50;;;;;;;;;;5045517;28;20053;-60
2023/05/03 03:54:46;;;;;;;10.82;3.20;;;;;;;;;;5045542;28;20032;-61
2023/05/03 03:57:13;;;;;;;17.45;4.03;;;;;;;;;;5046342;28;20250;-63
2023/05/03 03:59:40;;;;;;;10.30;3.03;;;;;;;;;;5044470;28;20048;-59
2023/05/03 04:02:07;;;;;;;7.45;2.90;;;;;;;;;;5046056;28;20068;-60
2023/05/03 04:04:35;;;;;;;10.43;3.17;;;;;;;;;;5060797;28;20029;-61
2023/05/03 04:07:02;;;;;;;12.68;2.90;;;;;;;;;;5058683;28;20149;-63
2023/05/03 04:09:29;;;;;;;8.48;2.58;;;;;;;;;;5044804;27;20545;-58
2023/05/03 04:11:55;;;;;;;9.38;2.80;;;;;;;;;;5045026;28;20056;-58
2023/05/03 04:14:22;;;;;;;9.27;2.92;;;;;;;;;;5045399;27;20462;-60
2023/05/03 04:16:49;;;;;;;12.40;3.35;;;;;;;;;;5045052;28;20041;-60
2023/05/03 04:19:17;;;;;;;13.43;3.67;;;;;;;;;;5061498;28;20033;-61
2023/05/03 04:21:44;;;;;;;8.25;2.70;;;;;;;;;;5044519;28;20060;-59
2023/05/03 04:24:14;;;;;;;10.07;3.05;;;;;;;;;;5047250;28;20124;-61
2023/05/03 04:26:41;;;;;;;9.77;2.55;;;;;;;;;;5043571;27;20596;-59
2023/05/03 04:29:09;;;;;;;11.60;2.60;;;;;;;;;;5046176;28;20026;-60
2023/05/03 04:31:36;;;;;;;13.95;2.92;;;;;;;;;;5044918;28;20357;-61
2023/05/03 04:34:03;;;;;;;7.93;2.30;;;;;;;;;;5046544;28;20113;-59
2023/05/03 04:36:30;;;;;;;7.65;2.83;;;;;;;;;;5050341;28;20560;-59
2023/05/03 04:38:57;;;;;;;5.47;2.28;;;;;;;;;;5046794;28;20489;-59
2023/05/03 04:41:24;;;;;;;9.60;2.47;;;;;;;;;;5059096;28;20095;-58
2023/05/03 04:43:51;;;;;;;9.10;2.05;;;;;;;;;;5045895;28;20524;-57
2023/05/03 04:46:17;;;;;;;9.57;2.75;;;;;;;;;;5044329;28;20052;-60
2023/05/03 04:48:45;;;;;;;10.50;2.47;;;;;;;;;;5044496;28;20077;-59
2023/05/03 04:51:12;;;;;;;6.57;2.13;;;;;;;;;;5045970;28;20049;-61
2023/05/03 04:53:39;;;;;;;7.68;2.17;;;;;;;;;;5044892;28;20060;-59
2023/05/03 04:56:06;;;;;;;6.13;2.00;;;;;;;;;;5045631;28;20033;-61
2023/05/03 04:58:33;;;;;;;12.57;2.00;;;;;;;;;;5045725;28;20592;-61
2023/05/03 05:00:59;;;;;;;7.95;2.03;;;;;;;;;;5045990;28;20096;-59
2023/05/03 05:03:26;;;;;;;11.88;2.50;;;;;;;;;;5043977;28;20051;-57
2023/05/03 05:05:53;;;;;;;12.52;2.25;;;;;;;;;;5043946;27;20043;-60
2023/05/03 05:08:19;;;;;;;7.65;1.92;;;;;;;;;;5046245;28;20048;-57
2023/05/03 05:10:46;;;;;;;11.05;2.38;;;;;;;;;;5059695;28;20505;-58
2023/05/03 05:13:13;;;;;;;7.70;2.42;;;;;;;;;;5045256;28;20492;-60
2023/05/03 05:15:40;;;;;;;8.82;2.10;;;;;;;;;;5044792;28;20033;-58
2023/05/03 05:18:08;;;;;;;7.47;2.15;;;;;;;;;;5049919;28;20052;-60
2023/05/03 05:20:35;;;;;;;7.43;2.17;;;;;;;;;;5047549;28;20041;-58
2023/05/03 05:23:01;;;;;;;13.55;2.03;;;;;;;;;;5044725;28;20033;-62
2023/05/03 05:25:28;;;;;;;7.50;1.98;;;;;;;;;;5043584;28;20041;-59
2023/05/03 05:27:55;;;;;;;9.25;2.20;;;;;;;;;;5045939;28;20048;-60
2023/05/03 05:30:41;;;;;;;11.35;2.15;;;;;;;;;;5050041;28;20806;-59
2023/05/03 05:33:08;;;;;;;13.68;2.40;;;;;;;;;;5049420;28;20057;-59
2023/05/03 05:35:35;;;;;;;10.60;2.70;;;;;;;;;;5049155;28;20037;-62
2023/05/03 05:38:02;;;;;;;15.10;2.65;;;;;;;;;;5050637;28;20075;-60
2023/05/03 05:40:28;;;;;;;11.05;2.33;;;;;;;;;;5052610;28;20071;-59
2023/05/03 05:42:55;;;;;;;14.27;2.97;;;;;;;;;;5051728;28;20045;-59
2023/05/03 05:45:22;;;;;;;14.82;2.97;;;;;;;;;;5050063;28;20045;-61
2023/05/03 05:47:49;;;;;;;16.58;2.80;;;;;;;;;;5050261;28;20183;-59
2023/05/03 05:50:16;;;;;;;8.95;2.33;;;;;;;;;;5049792;28;20044;-60
2023/05/03 05:52:43;;;;;;;9.98;2.97;;;;;;;;;;5049428;28;20067;-60
2023/05/03 05:55:13;;;;;;;9.93;2.60;;;;;;;;;;5050677;28;20037;-57
2023/05/03 05:57:39;;;;;;;9.35;2.20;;;;;;;;;;5049003;28;20601;-60
2023/05/03 06:00:13;;;;;;;11.55;2.25;;;;;;;;;;5050563;28;20041;-60
2023/05/03 06:02:40;;;;;;;12.20;2.70;;;;;;;;;;5043739;28;20044;-59
2023/05/03 06:05:07;;;;;;;8.63;2.38;;;;;;;;;;5059602;28;20036;-61
2023/05/03 06:07:34;;;;;;;9.60;2.33;;;;;;;;;;5042072;28;20045;-61
2023/05/03 06:10:00;;;;;;;15.23;3.05;;;;;;;;;;5042308;28;20041;-57
2023/05/03 06:12:27;;;;;;;11.93;2.42;;;;;;;;;;5042450;28;20053;-61
2023/05/03 06:14:54;;;;;;;14.93;3.00;;;;;;;;;;5044287;28;20037;-60
2023/05/03 06:17:25;;;;;;;10.55;2.72;;;;;;;;;;5044674;28;20744;-59
2023/05/03 06:19:52;;;;;;;7.85;2.38;;;;;;;;;;5038885;28;20532;-61
2023/05/03 06:22:19;;;;;;;13.65;3.08;;;;;;;;;;5043849;28;20044;-59
2023/05/03 06:24:45;;;;;;;10.35;2.95;;;;;;;;;;5042820;28;20085;-58
2023/05/03 06:27:12;;;;;;;13.90;4.35;;;;;;;;;;5041690;28;20365;-59
2023/05/03 06:29:39;;;;;;;12.38;3.75;;;;;;;;;;5056746;28;20393;-58
2023/05/03 06:32:06;;;;;;;13.77;3.97;;;;;;;;;;5045284;28;20221;-58
2023/05/03 06:34:32;;;;;;;13.55;4.00;;;;;;;;;;5057839;28;20033;-59
2023/05/03 06:36:59;;;;;;;15.40;3.33;;;;;;;;;;5042218;28;20205;-58
2023/05/03 06:39:27;;;;;;;26.77;3.92;;;;;;;;;;5042912;28;20359;-56
2023/05/03 06:41:53;;;;;;;17.10;4.38;;;;;;;;;;5043283;28;20041;-58
2023/05/03 06:44:20;;;;;;;16.42;4.10;;;;;;;;;;5043053;27;20056;-58
2023/05/03 06:46:47;;;;;;;14.38;3.92;;;;;;;;;;5041744;28;20095;-58
2023/05/03 06:49:13;;;;;;;18.80;5.07;;;;;;;;;;5042869;28;20060;-56
2023/05/03 06:51:43;;;;;;;23.67;5.47;;;;;;;;;;5041595;28;20432;-59
2023/05/03 06:54:09;;;;;;;30.33;5.55;;;;;;;;;;5043165;28;20045;-59
2023/05/03 06:56:36;;;;;;;18.67;6.05;;;;;;;;;;5040076;28;20095;-59
2023/05/03 06:59:03;;;;;;;23.67;5.82;;;;;;;;;;5043423;28;20064;-59
2023/05/03 07:01:32;;;;;;;25.77;4.63;;;;;;;;;;5041091;28;20052;-60
2023/05/03 07:03:59;;;;;;;27.77;4.95;;;;;;;;;;5041879;28;20118;-59
2023/05/03 07:06:27;;;;;;;22.70;4.82;;;;;;;;;;5042269;28;20044;-58
2023/05/03 07:08:54;;;;;;;22.67;4.90;;;;;;;;;;5041774;28;20037;-58
2023/05/03 07:11:24;;;;;;;16.20;4.43;;;;;;;;;;5041030;28;20029;-60
2023/05/03 07:13:52;;;;;;;18.35;4.28;;;;;;;;;;5043542;28;20045;-57
2023/05/03 07:16:19;;;;;;;16.60;3.55;;;;;;;;;;5042347;28;20765;-57
2023/05/03 07:18:46;;;;;;;15.15;3.45;;;;;;;;;;5043323;28;21667;-58
2023/05/03 07:21:13;;;;;;;12.98;3.50;;;;;;;;;;5041907;28;20106;-60
2023/05/03 07:23:40;;;;;;;13.57;3.13;;;;;;;;;;5028912;28;20134;-59
2023/05/03 07:26:07;;;;;;;13.65;3.22;;;;;;;;;;5043392;28;20048;-57
2023/05/03 07:28:34;;;;;;;16.27;3.28;;;;;;;;;;5042177;28;20445;-59
2023/05/03 07:31:00;;;;;;;16.95;3.17;;;;;;;;;;5042327;28;20056;-57
2023/05/03 07:33:27;;;;;;;12.98;3.08;;;;;;;;;;5040305;28;20060;-58
2023/05/03 07:35:54;;;;;;;18.65;3.05;;;;;;;;;;5041189;28;20103;-59
2023/05/03 07:38:20;;;;;;;22.63;2.85;;;;;;;;;;5041337;28;20987;-64
2023/05/03 07:40:47;;;;;;;17.20;3.33;;;;;;;;;;5042771;28;20045;-60
2023/05/03 07:43:15;;;;;;;13.48;3.30;;;;;;;;;;5041529;28;20045;-58
2023/05/03 07:45:42;;;;;;;16.35;3.10;;;;;;;;;;5042316;28;20053;-60
2023/05/03 07:48:09;;;;;;;12.02;3.15;;;;;;;;;;5046729;27;20037;-59
2023/05/03 07:50:35;;;;;;;11.10;3.00;;;;;;;;;;5044605;28;20055;-59
2023/05/03 07:53:03;;;;;;;15.68;3.03;;;;;;;;;;5047037;28;20053;-60
2023/05/03 07:55:31;;;;;;;16.13;3.35;;;;;;;;;;5044492;28;20426;-59
2023/05/03 07:57:58;;;;;;;19.33;3.08;;;;;;;;;;5051000;28;20040;-59
2023/05/03 08:00:26;;;;;;;13.43;2.92;;;;;;;;;;5048767;28;20055;-59
2023/05/03 08:02:52;;;;;;;10.38;2.60;;;;;;;;;;5045886;28;20044;-57
2023/05/03 08:05:19;;;;;;;13.48;2.60;;;;;;;;;;5043514;28;20041;-58
2023/05/03 08:07:46;;;;;;;15.27;2.90;;;;;;;;;;5045242;28;20084;-57
2023/05/03 08:10:13;;;;;;;13.30;2.85;;;;;;;;;;5044336;28;20052;-60
2023/05/03 08:12:39;;;;;;;7.85;2.60;;;;;;;;;;5045090;28;20265;-56
2023/05/03 08:15:06;;;;;;;12.35;3.20;;;;;;;;;;5046350;28;20485;-58
2023/05/03 08:17:39;;;;;;;10.23;2.45;;;;;;;;;;5042247;28;20113;-60
2023/05/03 08:20:07;;;;;;;15.40;2.92;;;;;;;;;;5045497;28;20106;-57
2023/05/03 08:22:36;;;;;;;11.55;2.80;;;;;;;;;;5043269;28;20102;-58
2023/05/03 08:25:03;;;;;;;14.10;2.85;;;;;;;;;;5043618;28;20772;-58
2023/05/03 08:27:31;;;;;;;15.15;2.70;;;;;;;;;;5043786;28;20086;-61
2023/05/03 08:29:59;;;;;;;11.30;2.90;;;;;;;;;;5044229;28;20052;-58
2023/05/03 08:32:25;;;;;;;12.52;3.08;;;;;;;;;;5045293;27;20146;-58
2023/05/03 08:34:52;;;;;;;8.52;2.47;;;;;;;;;;5045363;28;20033;-59
2023/05/03 08:37:19;;;;;;;22.52;3.17;;;;;;;;;;5042856;28;20071;-57
2023/05/03 08:39:48;;;;;;;12.18;3.05;;;;;;;;;;5053893;28;20052;-54
2023/05/03 08:42:15;;;;;;;15.50;3.22;;;;;;;;;;5045416;28;20033;-57
2023/05/03 08:44:46;;;;;;;9.48;2.78;;;;;;;;;;5045152;28;20047;-57
2023/05/03 08:47:16;;;;;;;10.63;2.78;;;;;;;;;;5045128;28;20110;-56
2023/05/03 08:49:45;;;;;;;14.90;2.65;;;;;;;;;;5043905;28;20045;-54
2023/05/03 08:52:15;;;;;;;14.73;2.85;;;;;;;;;;5043469;28;20136;-60
2023/05/03 08:54:42;;;;;;;10.90;2.70;;;;;;;;;;5043912;28;20056;-58
2023/05/03 08:57:10;;;;;;;8.15;2.58;;;;;;;;;;5042674;28;20082;-58
2023/05/03 09:00:00;;;;;;;12.63;2.70;;;;;;;;;;5044655;28;20052;-58
2023/05/03 09:02:27;;;;;;;15.63;3.13;;;;;;;;;;5043226;28;20048;-57
2023/05/03 09:04:55;;;;;;;11.13;2.38;;;;;;;;;;5043717;28;20047;-59
2023/05/03 09:07:22;;;;;;;12.30;2.97;;;;;;;;;;5040706;28;20132;-57
2023/05/03 09:09:49;;;;;;;13.43;2.60;;;;;;;;;;5042857;28;20036;-59
2023/05/03 09:12:44;;;;;;;8.73;2.55;;;;;;;;;;5044058;28;20053;-57
2023/05/03 09:15:21;;;;;;;9.65;2.55;;;;;;;;;;5043150;28;20056;-57
2023/05/03 09:18:06;;;;;;;8.05;2.72;;;;;;;;;;5042622;28;20438;-58
2023/05/03 09:20:36;;;;;;;13.27;2.90;;;;;;;;;;5058020;27;20038;-59
2023/05/03 09:23:03;;;;;;;10.27;2.88;;;;;;;;;;5044358;28;20527;-58
2023/05/03 09:25:46;;;;;;;14.10;2.63;;;;;;;;;;5043188;28;20037;-58
2023/05/03 09:28:14;;;;;;;9.10;2.65;;;;;;;;;;5045132;28;20036;-61
2023/05/03 09:30:41;;;;;;;9.10;2.60;;;;;;;;;;5042871;28;20049;-57
2023/05/03 09:33:09;;;;;;;8.65;2.60;;;;;;;;;;5043708;28;20052;-58
2023/05/03 09:35:36;;;;;;;6.55;2.70;;;;;;;;;;5042061;28;20060;-57
2023/05/03 09:38:02;;;;;;;14.98;2.97;;;;;;;;;;5043739;28;20037;-61
2023/05/03 09:40:29;;;;;;;8.70;2.50;;;;;;;;;;5043571;28;20505;-59
2023/05/03 09:43:13;;;;;;;14.13;2.65;;;;;;;;;;5044268;28;20029;-61
2023/05/03 09:45:40;;;;;;;8.77;2.78;;;;;;;;;;5043388;28;20041;-61
2023/05/03 09:48:07;;;;;;;9.68;2.65;;;;;;;;;;5043387;28;20041;-59
2023/05/03 09:50:35;;;;;;;10.80;2.63;;;;;;;;;;5043884;27;20052;-59
2023/05/03 09:53:03;;;;;;;7.90;2.53;;;;;;;;;;5043424;28;20057;-58
2023/05/03 09:55:39;;;;;;;12.23;2.92;;;;;;;;;;5042361;28;20033;-61
2023/05/03 09:58:06;;;;;;;10.57;2.65;;;;;;;;;;5043294;28;20041;-58
2023/05/03 10:00:41;;;;;;;9.75;2.70;;;;;;;;;;5042931;28;20037;-57
2023/05/03 10:03:11;;;;;;;9.05;2.63;;;;;;;;;;5043847;28;20043;-58
2023/05/03 10:05:46;;;;;;;9.35;2.05;;;;;;;;;;5043111;28;20362;-64
2023/05/03 10:08:18;;;;;;;12.90;2.70;;;;;;;;;;5042869;28;20044;-64
2023/05/03 10:10:45;;;;;;;11.63;2.92;;;;;;;;;;5042122;28;20515;-57
2023/05/03 10:13:32;;;;;;;14.13;2.88;;;;;;;;;;5037984;28;20049;-58
2023/05/03 10:16:05;;;;;;;13.00;2.83;;;;;;;;;;5040625;28;20573;-57
2023/05/03 10:18:32;;;;;;;7.85;2.80;;;;;;;;;;5040685;28;20037;-58
2023/05/03 10:21:02;;;;;;;15.30;2.72;;;;;;;;;;5033613;28;20079;-57
2023/05/03 10:23:29;;;;;;;14.73;2.83;;;;;;;;;;5039759;28;20041;-58
2023/05/03 10:26:10;;;;;;;11.48;3.20;;;;;;;;;;5038371;28;20037;-59
2023/05/03 10:28:39;;;;;;;13.15;3.00;;;;;;;;;;5039169;28;20041;-59
2023/05/03 10:31:06;;;;;;;15.07;2.85;;;;;;;;;;5039468;28;20044;-57
2023/05/03 10:33:36;;;;;;;10.25;3.00;;;;;;;;;;5022178;28;20107;-61
2023/05/03 10:36:09;;;;;;;13.23;3.03;;;;;;;;;;5039163;28;20123;-58
2023/05/03 10:38:37;;;;;;;15.25;3.22;;;;;;;;;;5040012;28;20072;-58
2023/05/03 10:41:05;;;;;;;14.77;2.90;;;;;;;;;;5040305;28;20103;-58
2023/05/03 10:43:35;;;;;;;11.30;3.20;;;;;;;;;;5039912;28;20044;-59
2023/05/03 10:46:03;;;;;;;8.52;3.00;;;;;;;;;;5040933;28;20044;-58
2023/05/03 10:48:30;;;;;;;18.15;3.67;;;;;;;;;;5040382;28;20040;-60
2023/05/03 10:50:57;;;;;;;10.25;3.00;;;;;;;;;;5040849;28;20041;-59
2023/05/03 10:53:35;;;;;;;11.02;3.20;;;;;;;;;;5041161;27;20076;-59
2023/05/03 10:56:06;;;;;;;10.52;2.83;;;;;;;;;;5042041;28;20041;-59
2023/05/03 10:58:36;;;;;;;10.43;2.85;;;;;;;;;;5042388;28;20752;-59
2023/05/03 11:01:03;;;;;;;10.52;3.00;;;;;;;;;;5041642;28;20039;-56
2023/05/03 11:03:34;;;;;;;15.45;2.95;;;;;;;;;;5042794;28;20047;-59
2023/05/03 11:06:02;;;;;;;12.57;3.13;;;;;;;;;;5041830;28;20037;-59
2023/05/03 11:08:35;;;;;;;11.75;3.08;;;;;;;;;;5040174;28;20742;-58
2023/05/03 11:11:08;;;;;;;9.57;3.22;;;;;;;;;;5041717;28;20041;-58
2023/05/03 11:13:38;;;;;;;10.77;2.70;;;;;;;;;;5046407;28;20048;-59
2023/05/03 11:16:05;;;;;;;14.50;3.63;;;;;;;;;;5041043;28;20534;-59
2023/05/03 11:18:32;;;;;;;11.32;3.10;;;;;;;;;;5040951;28;20041;-59
2023/05/03 11:20:59;;;;;;;13.90;3.38;;;;;;;;;;5043896;28;20210;-61
2023/05/03 11:23:29;;;;;;;10.65;3.20;;;;;;;;;;5043834;28;20037;-63
2023/05/03 11:25:59;;;;;;;18.70;3.58;;;;;;;;;;5046105;28;20647;-58
2023/05/03 11:28:25;;;;;;;14.80;2.92;;;;;;;;;;5044660;28;20074;-59
2023/05/03 11:30:52;;;;;;;17.20;3.50;;;;;;;;;;5046183;28;20079;-59
2023/05/03 11:33:19;;;;;;;18.27;3.47;;;;;;;;;;5047853;28;20162;-59
2023/05/03 11:35:46;;;;;;;18.20;3.58;;;;;;;;;;5045247;28;20056;-58
2023/05/03 11:38:12;;;;;;;24.55;3.70;;;;;;;;;;5044226;28;20052;-56
2023/05/03 11:40:40;;;;;;;38.35;4.82;;;;;;;;;;5044834;28;20045;-56
2023/05/03 11:43:06;;;;;;;27.48;4.53;;;;;;;;;;5044697;28;20037;-56
2023/05/03 11:45:44;;;;;;;26.23;3.55;;;;;;;;;;5044964;28;20069;-57
2023/05/03 11:48:15;;;;;;;41.58;5.30;;;;;;;;;;5042452;28;20049;-56
2023/05/03 11:50:45;;;;;;;24.58;4.70;;;;;;;;;;5043949;28;20047;-54
2023/05/03 11:53:15;;;;;;;33.97;4.93;;;;;;;;;;5044717;28;20048;-58
2023/05/03 11:55:43;;;;;;;17.90;3.90;;;;;;;;;;5044129;28;20040;-60
2023/05/03 11:58:14;;;;;;;25.88;4.80;;;;;;;;;;5044754;28;20033;-58
2023/05/03 12:00:51;;;;;;;25.65;4.53;;;;;;;;;;5043386;28;20056;-57
2023/05/03 12:03:25;;;;;;;19.60;4.28;;;;;;;;;;5045992;28;20052;-59
2023/05/03 12:05:52;;;;;;;19.65;3.97;;;;;;;;;;5043697;28;21663;-61
2023/05/03 12:08:20;;;;;;;29.75;4.90;;;;;;;;;;5043904;27;20130;-59
2023/05/03 12:10:50;;;;;;;19.35;4.18;;;;;;;;;;5045128;28;20041;-60
2023/05/03 12:13:35;;;;;;;22.50;4.13;;;;;;;;;;5041803;28;20063;-59
2023/05/03 12:16:03;;;;;;;16.08;4.40;;;;;;;;;;5044071;28;20125;-58
2023/05/03 12:19:04;;;;;;;15.75;3.42;;;;;;;;;;5043591;28;20055;-55
2023/05/03 12:21:50;;;;;;;16.65;3.58;;;;;;;;;;5020904;28;20592;-55
2023/05/03 12:24:18;;;;;;;21.75;5.15;;;;;;;;;;5042986;28;20079;-57
2023/05/03 12:26:45;;;;;;;16.65;3.88;;;;;;;;;;5044212;28;20433;-57
2023/05/03 12:29:12;;;;;;;27.33;5.00;;;;;;;;;;5044315;28;20041;-57
2023/05/03 12:31:40;;;;;;;26.27;4.45;;;;;;;;;;5043761;27;20079;-58
2023/05/03 12:34:06;;;;;;;20.42;4.47;;;;;;;;;;5042347;28;20064;-58
2023/05/03 12:36:34;;;;;;;21.23;4.07;;;;;;;;;;5048860;28;20119;-57
2023/05/03 12:39:01;;;;;;;16.58;3.65;;;;;;;;;;5043874;28;20044;-59
2023/05/03 12:41:30;;;;;;;16.25;3.92;;;;;;;;;;5042974;28;20107;-61
2023/05/03 12:44:01;;;;;;;28.92;4.47;;;;;;;;;;5044729;28;20043;-61
2023/05/03 12:46:27;;;;;;;16.10;4.32;;;;;;;;;;5044397;28;20126;-58
2023/05/03 12:48:54;;;;;;;24.13;4.85;;;;;;;;;;5045705;28;20459;-59
2023/05/03 12:51:21;;;;;;;18.58;4.60;;;;;;;;;;5045536;28;20039;-57
2023/05/03 12:53:49;;;;;;;20.48;4.25;;;;;;;;;;5043316;28;20071;-55
2023/05/03 12:56:16;;;;;;;21.85;4.63;;;;;;;;;;5045609;28;20576;-59
2023/05/03 12:58:46;;;;;;;33.47;5.22;;;;;;;;;;5044152;28;20677;-58
2023/05/03 13:01:13;;;;;;;14.35;4.20;;;;;;;;;;5041679;28;20044;-60
2023/05/03 13:03:39;;;;;;;20.25;4.30;;;;;;;;;;5042280;28;20045;-58
2023/05/03 13:06:06;;;;;;;19.33;5.75;;;;;;;;;;5044330;28;20037;-62
2023/05/03 13:08:34;;;;;;;18.77;4.35;;;;;;;;;;5042689;28;20079;-59
2023/05/03 13:11:01;;;;;;;19.20;4.43;;;;;;;;;;5046402;28;20039;-60
2023/05/03 13:13:27;;;;;;;23.90;4.40;;;;;;;;;;5044152;28;20135;-56
2023/05/03 13:15:54;;;;;;;22.90;4.65;;;;;;;;;;5045470;28;20037;-57
2023/05/03 13:18:21;;;;;;;37.22;5.43;;;;;;;;;;5043867;28;20357;-58
2023/05/03 13:20:49;;;;;;;38.00;6.13;;;;;;;;;;5044691;28;20108;-57
2023/05/03 13:23:15;;;;;;;36.28;6.32;;;;;;;;;;5043833;27;20052;-58
2023/05/03 13:25:43;;;;;;;35.90;5.95;;;;;;;;;;5041285;28;20044;-58
2023/05/03 13:28:10;;;;;;;33.13;6.85;;;;;;;;;;5044690;28;20543;-56
2023/05/03 13:30:37;;;;;;;30.98;6.15;;;;;;;;;;5042680;28;20056;-56
2023/05/03 13:33:03;;;;;;;39.83;6.32;;;;;;;;;;5042475;28;20124;-57
2023/05/03 13:35:30;;;;;;;29.02;6.38;;;;;;;;;;5042230;28;20037;-53
2023/05/03 13:37:56;;;;;;;26.27;5.65;;;;;;;;;;5043963;27;20048;-61
2023/05/03 13:40:23;;;;;;;23.42;5.75;;;;;;;;;;5044433;28;20037;-61
2023/05/03 13:42:50;;;;;;;32.00;6.57;;;;;;;;;;5044740;28;20040;-60
2023/05/03 13:45:17;;;;;;;29.08;6.63;;;;;;;;;;5045297;28;20032;-60
2023/05/03 13:47:44;;;;;;;39.08;6.57;;;;;;;;;;5041777;28;20037;-63
2023/05/03 13:50:11;;;;;;;30.02;6.65;;;;;;;;;;5043038;28;20057;-60
2023/05/03 13:52:37;;;;;;;29.92;6.47;;;;;;;;;;5042570;28;20053;-58
2023/05/03 13:55:04;;;;;;;23.73;5.47;;;;;;;;;;5038013;28;20751;-62
2023/05/03 13:57:31;;;;;;;29.40;5.60;;;;;;;;;;5040290;28;20080;-59
2023/05/03 13:59:57;;;;;;;22.98;5.40;;;;;;;;;;5058794;28;20029;-61
2023/05/03 14:02:24;;;;;;;24.05;5.85;;;;;;;;;;5040003;28;20043;-63
2023/05/03 14:04:51;;;;;;;25.50;5.88;;;;;;;;;;5042354;28;20044;-57
2023/05/03 14:07:19;;;;;;;21.75;5.50;;;;;;;;;;5041994;27;20133;-57
2023/05/03 14:09:45;;;;;;;27.30;5.88;;;;;;;;;;5059294;28;20327;-57
2023/05/03 14:12:12;;;;;;;15.85;5.07;;;;;;;;;;5044813;28;20041;-61
2023/05/03 14:14:39;;;;;;;14.30;4.63;;;;;;;;;;5051458;28;20134;-58
2023/05/03 14:17:07;;;;;;;29.40;5.72;;;;;;;;;;5042862;28;20029;-57
2023/05/03 14:19:36;;;;;;;21.58;5.85;;;;;;;;;;5041001;28;20044;-58
2023/05/03 14:22:03;;;;;;;20.08;5.47;;;;;;;;;;5044154;27;20032;-58
2023/05/03 14:24:30;;;;;;;23.17;6.03;;;;;;;;;;5042712;28;20140;-58
2023/05/03 14:26:59;;;;;;;31.25;5.85;;;;;;;;;;5042879;28;20049;-60
2023/05/03 14:29:25;;;;;;;34.40;6.13;;;;;;;;;;5046328;28;20040;-61
2023/05/03 14:31:52;;;;;;;32.03;6.03;;;;;;;;;;5043427;28;20128;-57
2023/05/03 14:34:19;;;;;;;25.55;5.88;;;;;;;;;;5043802;28;20110;-58
2023/05/03 14:36:45;;;;;;;21.55;5.88;;;;;;;;;;5017242;28;20048;-61
2023/05/03 14:39:15;;;;;;;20.92;5.25;;;;;;;;;;5043774;28;20055;-58